Time;durP1;ratioP1;P1;durP2;ratioP2;P2;SDS_P1;SDS_P2;PMS_P1;PMS_P2;Temp;Humidity;BMP_temperature;BMP_pressure;BME280_temperature;BME280_humidity;BME280_pressure;Samples;Min_cycle;Max_cycle;Signal;HPM_P1;HPM_P2
2021/11/30 00:01:44;;;;;;;10.60;6.72;;;;;;;1.12;76.96;96824.00;1762650;80;21058;-56
2021/11/30 00:04:13;;;;;;;12.88;6.45;;;;;;;1.15;76.94;96823.49;1768172;81;21535;-56
2021/11/30 00:06:40;;;;;;;11.75;6.45;;;;;;;1.15;76.91;96822.16;1784816;80;20962;-56
2021/11/30 00:12:08;;;;;;;14.07;6.05;;;;;;;1.12;77.13;96824.80;1752983;81;21074;-56
2021/11/30 00:14:36;;;;;;;9.80;5.30;;;;;;;1.12;77.25;96830.14;1752348;81;21000;-56
2021/11/30 00:17:04;;;;;;;8.63;5.17;;;;;;;1.16;77.21;96824.30;1753373;81;21177;-56
2021/11/30 00:19:31;;;;;;;9.30;5.35;;;;;;;1.16;77.20;96833.64;1750696;81;21021;-56
2021/11/30 00:21:58;;;;;;;1.67;1.47;;;;;;;1.17;77.22;96832.58;1784346;80;22189;-56
2021/11/30 00:24:28;;;;;;;11.12;5.95;;;;;;;1.23;77.08;96828.92;1784603;80;21422;-56
2021/11/30 00:26:55;;;;;;;10.43;6.20;;;;;;;1.19;76.97;96834.47;1784626;80;25608;-56
2021/11/30 00:29:22;;;;;;;8.70;5.25;;;;;;;1.18;77.32;96836.33;1769339;80;21035;-58
2021/11/30 00:31:49;;;;;;;10.05;5.08;;;;;;;1.23;77.40;96840.94;1752991;81;21653;-56
2021/11/30 00:34:15;;;;;;;10.75;6.00;;;;;;;1.23;77.42;96845.74;1752764;80;21024;-56
2021/11/30 00:36:42;;;;;;;9.93;5.45;;;;;;;1.26;77.27;96857.77;1744319;81;22258;-56
2021/11/30 00:39:09;;;;;;;9.53;4.75;;;;;;;1.25;77.35;96859.64;1747239;80;21090;-57
2021/11/30 00:41:36;;;;;;;8.93;4.95;;;;;;;1.27;77.49;96864.72;1758287;80;21117;-57
2021/11/30 00:44:04;;;;;;;9.78;5.28;;;;;;;1.23;77.62;96871.09;1752612;80;21024;-56
2021/11/30 00:46:39;;;;;;;14.60;5.47;;;;;;;1.19;77.82;96869.96;1753161;81;21490;-56
2021/11/30 00:49:03;;;;;;;8.23;4.62;;;;;;;1.16;77.97;96881.67;1751071;80;27627;-57
2021/11/30 00:51:30;;;;;;;9.60;5.12;;;;;;;1.12;78.11;96878.70;1752892;81;21075;-56
2021/11/30 00:53:57;;;;;;;12.23;5.70;;;;;;;1.07;78.45;96894.10;1759432;80;21060;-56
2021/11/30 00:56:24;;;;;;;10.25;5.65;;;;;;;1.07;78.30;96893.30;1761009;80;21072;-56
2021/11/30 00:58:53;;;;;;;10.25;5.30;;;;;;;1.05;78.61;96894.08;1752786;81;21477;-57
2021/11/30 01:01:21;;;;;;;6.95;3.77;;;;;;;1.05;78.77;96907.41;1753134;81;27837;-56
2021/11/30 01:03:47;;;;;;;7.37;4.47;;;;;;;1.08;78.68;96912.25;1752788;80;21025;-56
2021/11/30 01:06:15;;;;;;;9.05;5.37;;;;;;;1.03;79.04;96922.87;1753109;80;20990;-56
2021/11/30 01:08:42;;;;;;;11.57;5.53;;;;;;;0.96;79.54;96924.89;1752778;80;21499;-56
2021/11/30 01:11:09;;;;;;;10.00;5.72;;;;;;;0.94;79.98;96929.64;1753123;81;20977;-56
2021/11/30 01:13:36;;;;;;;9.95;5.60;;;;;;;0.92;79.86;96935.23;1752874;80;21478;-57
2021/11/30 01:16:04;;;;;;;8.13;4.05;;;;;;;0.91;80.09;96934.14;1752637;81;21020;-56
2021/11/30 01:18:31;;;;;;;9.50;5.70;;;;;;;0.92;80.20;96937.09;1752814;80;21004;-57
2021/11/30 01:20:59;;;;;;;10.32;5.97;;;;;;;0.89;80.19;96941.59;1752663;81;20990;-56
2021/11/30 01:23:29;;;;;;;13.13;6.80;;;;;;;0.90;80.82;96942.67;1752646;80;21053;-56
2021/11/30 01:25:55;;;;;;;10.82;6.28;;;;;;;0.86;81.29;96946.89;1752907;81;27985;-56
2021/11/30 01:28:23;;;;;;;16.48;8.63;;;;;;;0.84;81.00;96943.11;1752762;80;20996;-56
2021/11/30 01:30:51;;;;;;;12.33;5.75;;;;;;;0.88;80.88;96944.78;1753005;81;21071;-57
2021/11/30 01:33:17;;;;;;;11.60;6.85;;;;;;;0.92;80.76;96951.23;1752872;80;21080;-57
2021/11/30 01:35:46;;;;;;;11.30;6.67;;;;;;;0.89;80.85;96947.73;1752931;81;21028;-57
2021/11/30 01:38:13;;;;;;;12.58;6.40;;;;;;;0.91;81.20;96946.95;1749201;81;21568;-57
2021/11/30 01:40:41;;;;;;;14.53;6.08;;;;;;;0.89;81.24;96942.39;1784515;80;21056;-57
2021/11/30 01:43:13;;;;;;;14.15;6.95;;;;;;;0.86;81.35;96942.89;1784841;80;21029;-57
2021/11/30 01:50:38;;;;;;;13.98;6.92;;;;;;;0.84;81.54;96951.11;1784923;80;22077;-57
2021/11/30 01:53:05;;;;;;;14.43;7.62;;;;;;;0.85;81.66;96949.25;1761583;80;21047;-57
2021/11/30 01:55:32;;;;;;;11.45;6.95;;;;;;;0.81;81.61;96950.27;1749608;81;21488;-57
2021/11/30 01:58:00;;;;;;;10.85;6.62;;;;;;;0.82;81.81;96962.55;1722935;83;20989;-57
2021/11/30 02:00:28;;;;;;;11.88;6.75;;;;;;;0.82;81.74;96959.89;1750405;80;21510;-57
2021/11/30 02:02:55;;;;;;;11.78;6.75;;;;;;;0.82;81.71;96950.55;1752876;80;22165;-57
2021/11/30 02:05:22;;;;;;;14.40;6.47;;;;;;;0.80;81.84;96952.66;1752525;81;21009;-57
2021/11/30 02:07:49;;;;;;;8.73;4.00;;;;;;;0.82;81.73;96949.75;1752976;80;20985;-57
2021/11/30 02:10:17;;;;;;;13.10;7.50;;;;;;;0.85;81.54;96950.59;1752783;80;21136;-57
2021/11/30 02:12:44;;;;;;;10.23;6.53;;;;;;;0.80;81.73;96952.66;1752995;80;21079;-57
2021/11/30 02:15:12;;;;;;;13.25;7.05;;;;;;;0.83;81.60;96954.03;1752603;81;22241;-57
2021/11/30 02:17:40;;;;;;;11.28;6.50;;;;;;;0.86;81.56;96964.23;1752924;80;21589;-57
2021/11/30 02:20:09;;;;;;;10.90;5.00;;;;;;;0.91;81.75;96968.30;1752696;81;21001;-57
2021/11/30 02:22:36;;;;;;;11.75;6.08;;;;;;;0.98;81.36;96976.14;1752935;80;20969;-57
2021/11/30 02:25:04;;;;;;;8.45;5.78;;;;;;;0.83;80.70;96974.03;1729098;81;21079;-57
2021/11/30 02:27:31;;;;;;;11.88;6.25;;;;;;;0.93;81.14;96976.05;1752906;80;21540;-57
2021/11/30 02:29:58;;;;;;;12.13;5.45;;;;;;;0.96;81.09;96976.38;1752718;80;21165;-57
2021/11/30 02:32:25;;;;;;;9.60;5.83;;;;;;;0.98;81.04;96978.27;1753021;80;20965;-56
2021/11/30 02:34:52;;;;;;;7.60;4.72;;;;;;;1.02;80.69;96978.59;1752701;81;21461;-57
2021/11/30 02:37:24;;;;;;;9.55;5.55;;;;;;;1.00;80.45;96982.03;1750890;81;20982;-57
2021/11/30 02:39:47;;;;;;;8.38;4.92;;;;;;;0.96;80.50;96983.05;1771711;80;27154;-56
2021/11/30 02:42:14;;;;;;;10.13;5.40;;;;;;;0.98;80.71;96985.47;1784968;80;21000;-56
2021/11/30 02:44:42;;;;;;;9.58;5.33;;;;;;;1.00;80.60;96992.70;1782982;80;21005;-56
2021/11/30 02:47:12;;;;;;;10.07;6.23;;;;;;;1.04;80.39;96990.66;1753131;80;21494;-57
2021/11/30 02:49:41;;;;;;;7.37;4.62;;;;;;;1.03;80.59;96993.04;1752579;80;21514;-56
2021/11/30 02:52:14;;;;;;;9.03;5.58;;;;;;;1.05;80.30;96994.12;1763746;80;21543;-57
2021/11/30 02:54:43;;;;;;;7.62;5.15;;;;;;;1.00;80.40;97002.03;1765128;79;21068;-56
2021/11/30 02:57:12;;;;;;;10.25;5.92;;;;;;;0.97;80.36;97000.67;1753325;80;21036;-56
2021/11/30 02:59:43;;;;;;;8.05;5.45;;;;;;;0.97;80.64;96998.00;1772019;80;21020;-56
2021/11/30 03:02:26;;;;;;;9.98;5.95;;;;;;;0.93;80.83;97005.39;1784708;80;36739;-56
2021/11/30 03:04:58;;;;;;;11.12;5.15;;;;;;;0.91;80.72;97003.50;1784619;80;21603;-56
2021/11/30 03:07:35;;;;;;;11.60;5.90;;;;;;;0.89;80.69;97006.41;1785098;80;21075;-56
2021/11/30 03:10:00;;;;;;;10.08;5.60;;;;;;;0.88;80.97;97006.66;1784375;80;21064;-56
2021/11/30 03:12:27;;;;;;;12.15;5.28;;;;;;;0.85;81.13;97003.92;1785080;80;21084;-56
2021/11/30 03:14:54;;;;;;;11.50;5.75;;;;;;;0.82;81.36;97013.23;1784579;80;21048;-56
2021/11/30 03:17:21;;;;;;;9.83;6.60;;;;;;;0.78;81.44;97015.30;1784884;80;21417;-56
2021/11/30 03:19:47;;;;;;;10.78;6.20;;;;;;;0.78;81.36;97013.97;1763649;80;21530;-56
2021/11/30 03:22:14;;;;;;;8.75;5.35;;;;;;;0.76;81.90;97006.72;1753168;80;21086;-56
2021/11/30 03:24:41;;;;;;;10.80;6.00;;;;;;;0.77;81.85;97013.16;1772430;80;20981;-56
2021/11/30 03:27:08;;;;;;;19.80;15.78;;;;;;;0.77;81.58;97011.83;1785032;80;21028;-56
2021/11/30 03:29:35;;;;;;;10.23;7.05;;;;;;;0.79;81.58;97010.25;1784732;80;21501;-56
2021/11/30 03:32:13;;;;;;;10.65;6.30;;;;;;;0.76;81.88;97013.38;1783732;80;21001;-56
2021/11/30 03:34:38;;;;;;;10.82;6.85;;;;;;;0.80;81.66;97017.20;1751835;80;21025;-56
2021/11/30 03:37:09;;;;;;;12.90;7.90;;;;;;;0.78;81.61;97012.64;1738932;81;21044;-56
2021/11/30 03:39:36;;;;;;;10.43;6.80;;;;;;;0.77;82.06;97008.33;1785986;79;21084;-57
2021/11/30 03:42:03;;;;;;;10.80;6.83;;;;;;;0.77;81.91;97002.50;1804232;79;22140;-56
2021/11/30 03:44:30;;;;;;;10.03;5.92;;;;;;;0.79;81.99;97011.06;1776100;80;20978;-56
2021/11/30 03:46:58;;;;;;;11.08;6.67;;;;;;;0.78;81.84;97009.45;1752678;80;21616;-56
2021/11/30 03:49:26;;;;;;;11.35;6.70;;;;;;;0.78;81.89;97007.30;1752295;80;21032;-56
2021/11/30 03:51:53;;;;;;;8.85;5.30;;;;;;;0.76;82.30;96998.19;1753988;80;21021;-56
2021/11/30 03:54:20;;;;;;;11.43;6.08;;;;;;;0.77;82.09;97002.99;1758786;81;22278;-57
2021/11/30 03:56:48;;;;;;;11.78;7.53;;;;;;;0.75;82.11;96997.91;1768494;80;21006;-57
2021/11/30 03:59:15;;;;;;;58.52;28.12;;;;;;;0.79;82.30;97002.25;1784511;80;20997;-56
2021/11/30 04:01:42;;;;;;;87.45;47.13;;;;;;;0.79;82.19;97003.59;1783102;79;21511;-56
2021/11/30 04:04:29;;;;;;;21.33;12.37;;;;;;;0.77;82.25;96997.16;1763209;79;21103;-56
2021/11/30 04:06:54;;;;;;;15.08;10.05;;;;;;;0.77;82.44;96998.99;1761058;81;22191;-56
2021/11/30 04:09:23;;;;;;;9.80;5.47;;;;;;;0.78;82.27;97004.11;1765463;79;21077;-56
2021/11/30 04:11:49;;;;;;;16.87;7.85;;;;;;;0.79;82.09;96997.72;1764259;80;21011;-57
2021/11/30 04:14:17;;;;;;;8.20;5.03;;;;;;;0.79;82.24;97008.92;1763024;81;21027;-57
2021/11/30 04:16:44;;;;;;;7.90;4.95;;;;;;;0.81;82.09;97011.62;1763372;80;21017;-56
2021/11/30 04:19:11;;;;;;;6.12;3.87;;;;;;;0.81;81.43;97004.14;1762994;79;21472;-57
2021/11/30 04:21:38;;;;;;;9.98;5.35;;;;;;;0.81;81.37;97012.95;1763359;81;21005;-56
2021/11/30 04:24:05;;;;;;;8.23;4.10;;;;;;;0.80;81.52;97007.86;1763104;79;21013;-56
2021/11/30 04:26:32;;;;;;;7.37;4.95;;;;;;;0.80;81.56;97004.67;1763170;81;21038;-57
2021/11/30 04:28:59;;;;;;;9.78;5.40;;;;;;;0.83;81.28;97011.38;1762947;79;21550;-57
2021/11/30 04:31:27;;;;;;;8.28;4.42;;;;;;;0.82;81.22;97015.90;1763038;80;21050;-56
2021/11/30 04:33:54;;;;;;;7.58;4.92;;;;;;;0.84;81.16;97018.31;1763143;79;21006;-56
2021/11/30 04:36:21;;;;;;;5.72;4.22;;;;;;;0.86;81.05;97014.91;1762175;81;21026;-56
2021/11/30 04:38:48;;;;;;;9.33;3.98;;;;;;;0.87;80.97;97017.86;1763922;80;21067;-56
2021/11/30 04:41:15;;;;;;;9.50;5.20;;;;;;;0.88;81.03;97019.47;1773313;80;21018;-57
2021/11/30 04:43:42;;;;;;;9.88;5.17;;;;;;;0.88;80.94;97024.00;1784691;80;21135;-56
2021/11/30 04:46:13;;;;;;;7.67;4.35;;;;;;;0.87;80.61;97023.72;1763896;80;21071;-56
2021/11/30 04:48:51;;;;;;;8.45;4.12;;;;;;;0.85;80.65;97029.27;1752609;80;21499;-56
2021/11/30 04:51:12;;;;;;;8.88;5.60;;;;;;;0.84;80.40;97028.46;1751107;80;21028;-56
2021/11/30 04:53:41;;;;;;;21.33;11.30;;;;;;;0.88;80.90;97033.33;1777642;80;21573;-56
2021/11/30 04:56:07;;;;;;;51.30;24.55;;;;;;;0.88;80.80;97032.80;1752686;81;26424;-56
2021/11/30 04:58:34;;;;;;;28.20;21.97;;;;;;;0.91;80.84;97034.17;1752944;80;21028;-56
2021/11/30 05:01:01;;;;;;;17.35;10.10;;;;;;;0.92;80.50;97035.26;1771841;80;21005;-56
2021/11/30 05:03:28;;;;;;;15.53;8.03;;;;;;;0.95;80.46;97035.32;1784893;80;21012;-57
2021/11/30 05:05:55;;;;;;;22.13;12.30;;;;;;;0.86;80.59;97032.77;1784650;80;21115;-56
2021/11/30 05:08:22;;;;;;;8.48;5.65;;;;;;;0.84;80.54;97029.80;1784808;80;21547;-56
2021/11/30 05:10:49;;;;;;;7.12;3.50;;;;;;;0.86;80.47;97037.58;1770637;80;21502;-56
2021/11/30 05:13:17;;;;;;;5.35;3.22;;;;;;;0.81;80.44;97037.48;1752886;81;20985;-56
2021/11/30 05:15:43;;;;;;;6.90;5.37;;;;;;;0.80;80.46;97034.01;1752936;81;21016;-56
2021/11/30 05:18:11;;;;;;;5.50;3.40;;;;;;;0.79;80.37;97037.73;1752666;80;21533;-56
2021/11/30 05:20:38;;;;;;;11.60;10.43;;;;;;;0.78;80.53;97033.45;1752914;81;21419;-56
2021/11/30 05:23:05;;;;;;;8.68;4.75;;;;;;;0.79;80.74;97025.73;1752881;80;20971;-56
2021/11/30 05:25:37;;;;;;;8.58;5.03;;;;;;;0.79;80.64;97019.06;1752670;81;21069;-58
2021/11/30 05:28:05;;;;;;;14.87;10.95;;;;;;;0.78;80.55;97021.45;1752893;80;21165;-56
2021/11/30 05:30:39;;;;;;;9.00;4.95;;;;;;;0.78;80.60;97024.11;1753302;81;21538;-57
2021/11/30 05:33:10;;;;;;;8.58;5.62;;;;;;;0.78;80.76;97027.30;1752726;80;22119;-56
2021/11/30 05:35:37;;;;;;;8.68;5.87;;;;;;;0.76;80.94;97028.86;1752711;81;21137;-57
2021/11/30 05:38:04;;;;;;;8.43;5.10;;;;;;;0.76;80.94;97025.38;1727353;81;21027;-56
2021/11/30 05:40:32;;;;;;;6.83;4.47;;;;;;;0.73;81.11;97020.02;1803009;79;20982;-56
2021/11/30 05:42:59;;;;;;;7.97;4.13;;;;;;;0.73;81.11;97016.55;1804597;79;21002;-56
2021/11/30 05:45:26;;;;;;;7.42;4.25;;;;;;;0.75;80.98;97026.44;1754212;80;21402;-57
2021/11/30 05:47:54;;;;;;;9.43;4.83;;;;;;;0.72;81.03;97022.93;1752402;81;21067;-56
2021/11/30 05:50:21;;;;;;;9.88;6.15;;;;;;;0.73;81.22;97024.54;1779910;80;21060;-56
2021/11/30 05:52:49;;;;;;;11.22;7.85;;;;;;;0.74;80.97;97024.30;1749283;81;21025;-56
2021/11/30 05:55:16;;;;;;;9.40;7.75;;;;;;;0.75;80.62;97019.23;1776768;80;20986;-56
2021/11/30 05:57:43;;;;;;;8.18;5.17;;;;;;;0.75;80.73;97020.58;1779969;79;21479;-56
2021/11/30 06:00:11;;;;;;;7.55;4.55;;;;;;;0.76;80.71;97018.72;1780006;79;21001;-56
2021/11/30 06:05:17;;;;;;;13.68;8.85;;;;;;;0.78;80.15;97025.97;1778175;80;21018;-56
2021/11/30 06:07:44;;;;;;;25.80;21.65;;;;;;;0.77;80.11;97019.83;1773861;80;21068;-56
2021/11/30 06:10:11;;;;;;;11.08;6.70;;;;;;;0.78;79.60;97018.78;1773545;80;21978;-57
2021/11/30 06:12:38;;;;;;;15.72;9.45;;;;;;;0.79;79.98;97017.72;1769826;80;21162;-56
2021/11/30 06:15:06;;;;;;;15.38;7.28;;;;;;;0.81;79.93;97019.62;1776248;78;21527;-56
2021/11/30 06:17:33;;;;;;;47.03;28.62;;;;;;;0.81;79.97;97022.28;1789922;78;21829;-57
2021/11/30 06:20:00;;;;;;;24.92;11.65;;;;;;;0.82;79.76;97015.90;1783792;78;21070;-56
2021/11/30 06:22:27;;;;;;;6.72;4.85;;;;;;;0.83;79.76;97013.52;1802973;78;21930;-56
2021/11/30 06:24:54;;;;;;;5.35;3.30;;;;;;;0.86;79.06;97013.58;1780972;78;21079;-56
2021/11/30 06:27:21;;;;;;;7.17;4.25;;;;;;;0.78;78.79;97018.78;1778450;78;21009;-56
2021/11/30 06:29:48;;;;;;;5.05;2.87;;;;;;;0.77;78.72;97017.16;1773726;79;21096;-56
2021/11/30 06:32:14;;;;;;;16.62;11.22;;;;;;;0.78;79.22;97013.97;1769517;78;21637;-57
2021/11/30 06:34:41;;;;;;;13.35;9.15;;;;;;;0.81;79.21;97016.14;1752395;80;21099;-57
2021/11/30 06:37:09;;;;;;;24.85;12.33;;;;;;;0.81;79.13;97016.95;1742109;81;21068;-56
2021/11/30 06:39:36;;;;;;;32.40;12.75;;;;;;;0.82;79.13;97011.90;1762515;80;20994;-56
2021/11/30 06:42:04;;;;;;;16.52;9.23;;;;;;;0.83;79.10;97006.84;1752946;80;21061;-57
2021/11/30 06:44:35;;;;;;;16.82;10.80;;;;;;;0.85;79.10;97009.27;1752889;80;21195;-55
2021/11/30 06:47:03;;;;;;;58.85;46.65;;;;;;;0.86;78.57;97006.10;1754074;80;21061;-56
2021/11/30 06:49:30;;;;;;;18.20;14.93;;;;;;;0.86;78.40;97004.23;1776427;78;20982;-57
2021/11/30 06:51:57;;;;;;;14.18;8.55;;;;;;;0.86;78.52;97008.23;1769200;79;21373;-56
2021/11/30 06:54:24;;;;;;;6.28;4.12;;;;;;;0.87;78.69;97007.19;1769800;79;21051;-56
2021/11/30 06:56:51;;;;;;;9.45;5.83;;;;;;;0.88;78.58;97009.33;1777844;79;21036;-56
2021/11/30 06:59:18;;;;;;;5.70;4.10;;;;;;;0.84;78.45;97011.13;1771035;80;21163;-57
2021/11/30 07:01:45;;;;;;;16.80;11.00;;;;;;;0.82;78.56;97013.23;1771494;79;21633;-57
2021/11/30 07:04:12;;;;;;;23.42;16.40;;;;;;;0.79;78.58;97011.06;1756222;81;21164;-56
2021/11/30 07:06:47;;;;;;;14.45;9.63;;;;;;;0.79;78.81;97016.39;1751184;80;21039;-56
2021/11/30 07:14:15;;;;;;;8.55;5.08;;;;;;;0.83;79.17;97016.17;1780542;77;21636;-57
2021/11/30 07:16:42;;;;;;;14.03;7.25;;;;;;;0.86;79.32;97013.58;1775096;80;21020;-56
2021/11/30 07:19:09;;;;;;;10.35;4.95;;;;;;;0.92;79.33;97017.92;1750908;81;21504;-56
2021/11/30 07:21:36;;;;;;;10.03;6.00;;;;;;;0.98;79.34;97020.16;1768320;80;21065;-57
2021/11/30 07:24:05;;;;;;;8.50;4.60;;;;;;;1.03;79.20;97004.23;1776767;79;23244;-56
2021/11/30 07:26:32;;;;;;;11.40;5.87;;;;;;;1.06;79.23;97008.55;1736148;80;21162;-57
2021/11/30 07:28:59;;;;;;;16.17;9.25;;;;;;;1.11;79.22;97000.64;1753160;81;21139;-56
2021/11/30 07:31:27;;;;;;;10.65;6.62;;;;;;;1.18;79.30;96999.11;1759864;80;21065;-56
2021/11/30 07:33:54;;;;;;;58.23;23.27;;;;;;;1.30;79.49;96997.70;1751737;81;20982;-57
2021/11/30 07:36:21;;;;;;;13.00;7.17;;;;;;;1.38;79.40;96995.42;1758988;81;21592;-57
2021/11/30 07:38:48;;;;;;;11.12;7.62;;;;;;;1.49;79.02;96992.88;1774488;79;21072;-56
2021/11/30 07:41:17;;;;;;;10.85;6.80;;;;;;;1.54;79.19;96990.27;1740328;80;21063;-56
2021/11/30 07:43:45;;;;;;;20.00;11.70;;;;;;;1.61;79.20;96981.02;1762164;79;21330;-57
2021/11/30 07:46:12;;;;;;;13.10;7.80;;;;;;;1.64;79.11;96980.55;1772203;79;21558;-56
2021/11/30 07:48:39;;;;;;;12.28;7.58;;;;;;;1.71;79.00;96980.38;1769378;80;21406;-57
2021/11/30 07:51:06;;;;;;;13.80;9.30;;;;;;;1.69;78.71;96973.11;1752818;79;21134;-56
2021/11/30 07:53:34;;;;;;;17.40;7.72;;;;;;;1.71;78.89;96973.70;1763461;79;21025;-56
2021/11/30 07:56:01;;;;;;;12.00;6.35;;;;;;;1.65;78.95;96973.34;1761796;81;21368;-56
2021/11/30 07:58:28;;;;;;;12.13;6.25;;;;;;;1.68;78.90;96967.49;1766148;80;21060;-57
2021/11/30 08:00:55;;;;;;;9.43;5.33;;;;;;;1.63;78.65;96955.43;1756556;79;21946;-57
2021/11/30 08:03:22;;;;;;;8.38;5.83;;;;;;;1.56;78.88;96956.14;1756636;79;21053;-56
2021/11/30 08:05:49;;;;;;;11.45;6.37;;;;;;;1.57;78.98;96958.55;1773487;79;20978;-56
2021/11/30 08:08:16;;;;;;;12.47;6.58;;;;;;;1.62;79.03;96955.13;1764228;79;21117;-56
2021/11/30 08:10:43;;;;;;;9.40;5.45;;;;;;;1.66;78.94;96941.57;1768408;79;21089;-56
2021/11/30 08:13:10;;;;;;;12.20;7.03;;;;;;;1.72;78.75;96938.44;1767491;79;21611;-57
2021/11/30 08:15:37;;;;;;;8.33;4.83;;;;;;;1.72;78.95;96946.45;1768977;79;21144;-56
2021/11/30 08:18:05;;;;;;;13.80;7.28;;;;;;;1.73;78.82;96942.20;1771520;79;21097;-57
2021/11/30 08:20:32;;;;;;;11.78;5.92;;;;;;;1.74;78.61;96941.13;1759798;80;21127;-57
2021/11/30 08:22:59;;;;;;;8.03;5.25;;;;;;;1.76;78.40;96936.34;1780294;79;21535;-56
2021/11/30 08:25:26;;;;;;;9.73;5.83;;;;;;;1.72;78.37;96941.92;1766276;80;21084;-56
2021/11/30 08:27:53;;;;;;;8.48;5.37;;;;;;;1.65;78.26;96942.63;1769365;80;21250;-57
2021/11/30 08:30:20;;;;;;;9.30;5.75;;;;;;;1.66;78.16;96935.70;1773564;79;20942;-56
2021/11/30 08:32:47;;;;;;;9.65;7.15;;;;;;;1.69;78.22;96934.39;1763426;80;21630;-57
2021/11/30 08:35:14;;;;;;;8.28;4.60;;;;;;;1.70;78.27;96933.33;1762199;80;22182;-57
2021/11/30 08:37:40;;;;;;;7.47;4.20;;;;;;;1.68;77.82;96937.59;1750237;79;21853;-56
2021/11/30 08:40:12;;;;;;;6.83;4.78;;;;;;;1.64;77.84;96941.02;1759483;80;21033;-57
2021/11/30 08:42:39;;;;;;;9.55;5.67;;;;;;;1.66;77.87;96940.23;1769774;80;21633;-56
2021/11/30 08:45:07;;;;;;;10.32;7.42;;;;;;;1.62;78.16;96945.28;1757905;80;20981;-57
2021/11/30 08:47:34;;;;;;;11.78;7.10;;;;;;;1.65;78.40;96939.43;1761117;80;20977;-56
2021/11/30 08:50:01;;;;;;;9.55;5.53;;;;;;;1.68;78.46;96945.59;1768049;79;21110;-56
2021/11/30 08:52:28;;;;;;;13.98;7.17;;;;;;;1.69;78.40;96938.39;1775521;80;21166;-57
2021/11/30 08:54:56;;;;;;;9.23;5.12;;;;;;;1.70;78.57;96941.34;1769434;79;21585;-56
2021/11/30 08:57:24;;;;;;;8.05;5.30;;;;;;;1.72;78.68;96948.59;1766913;79;21021;-56
2021/11/30 08:59:52;;;;;;;13.03;6.25;;;;;;;1.73;78.46;96942.73;1770510;80;21147;-56
2021/11/30 09:02:20;;;;;;;10.98;5.95;;;;;;;1.85;78.50;96940.19;1768504;80;22255;-56
2021/11/30 09:04:48;;;;;;;12.58;9.10;;;;;;;2.03;78.25;96931.56;1757658;79;21211;-57
2021/11/30 09:07:17;;;;;;;11.97;7.87;;;;;;;2.15;78.56;96938.92;1759312;79;21193;-56
2021/11/30 09:09:46;;;;;;;10.75;4.35;;;;;;;2.37;78.43;96930.30;1749777;79;21072;-57
2021/11/30 09:12:15;;;;;;;10.68;7.37;;;;;;;2.61;78.01;96929.97;1763926;80;22093;-56
2021/11/30 09:14:41;;;;;;;6.43;4.30;;;;;;;2.67;78.20;96926.28;1769122;79;21009;-56
2021/11/30 09:17:08;;;;;;;9.10;6.05;;;;;;;2.80;77.98;96919.15;1761919;80;21040;-57
2021/11/30 09:19:35;;;;;;;16.05;11.53;;;;;;;2.94;77.37;96916.85;1755783;79;21107;-56
2021/11/30 09:22:03;;;;;;;15.75;7.15;;;;;;;3.01;76.57;96910.75;1773319;80;21068;-57
2021/11/30 09:24:30;;;;;;;5.92;4.05;;;;;;;3.11;76.22;96907.59;1766810;80;21064;-57
2021/11/30 09:26:57;;;;;;;7.97;5.10;;;;;;;3.21;75.99;96904.70;1771140;79;21317;-57
2021/11/30 09:29:25;;;;;;;9.70;6.33;;;;;;;3.14;75.00;96892.88;1772035;79;21594;-56
2021/11/30 09:31:52;;;;;;;7.92;5.05;;;;;;;3.12;75.25;96892.34;1758095;79;21582;-57
2021/11/30 09:34:19;;;;;;;6.28;3.55;;;;;;;3.05;74.77;96886.41;1771287;79;20997;-56
2021/11/30 09:36:47;;;;;;;9.18;6.58;;;;;;;3.02;73.98;96889.08;1772597;80;22004;-57
2021/11/30 09:39:14;;;;;;;10.75;7.40;;;;;;;2.85;73.89;96884.95;1767583;80;21037;-57
2021/11/30 09:41:43;;;;;;;10.50;6.60;;;;;;;2.91;74.08;96881.25;1769449;79;21044;-57
2021/11/30 09:44:11;;;;;;;11.30;3.42;;;;;;;2.85;73.33;96875.05;1764020;80;21079;-57
2021/11/30 09:46:39;;;;;;;20.17;15.38;;;;;;;2.78;73.42;96869.91;1768659;80;21048;-57
2021/11/30 09:49:06;;;;;;;13.08;9.68;;;;;;;2.64;73.85;96859.91;1776645;80;21074;-56
2021/11/30 09:51:33;;;;;;;7.85;5.80;;;;;;;2.58;74.19;96861.76;1772356;79;23160;-57
2021/11/30 09:54:00;;;;;;;9.63;4.70;;;;;;;2.53;73.97;96854.48;1767116;79;21053;-56
2021/11/30 09:58:56;;;;;;;13.60;6.65;;;;;;;2.47;73.66;96846.15;1849579;75;22763;-55
2021/11/30 10:01:22;;;;;;;8.78;4.22;;;;;;;2.42;73.60;96846.13;1802242;77;21062;-56
2021/11/30 10:03:48;;;;;;;9.00;5.97;;;;;;;2.42;72.93;96834.62;1806049;77;21450;-56
2021/11/30 10:06:14;;;;;;;9.28;5.22;;;;;;;2.35;73.13;96830.83;1812090;77;20933;-56
2021/11/30 10:08:45;;;;;;;6.45;4.30;;;;;;;2.48;73.68;96826.39;1808846;77;21468;-56
2021/11/30 10:11:29;;;;;;;7.37;4.03;;;;;;;2.54;73.32;96813.84;1800738;77;21096;-56
2021/11/30 10:14:25;;;;;;;13.98;10.65;;;;;;;2.59;73.15;96803.19;1802641;77;21025;-57
2021/11/30 10:17:17;;;;;;;11.00;7.97;;;;;;;2.70;73.79;96796.83;1803791;79;21825;-56
2021/11/30 10:19:53;;;;;;;8.43;5.40;;;;;;;2.83;72.79;96784.34;1740904;80;21003;-56
2021/11/30 10:22:55;;;;;;;15.63;7.50;;;;;;;2.94;72.44;96769.67;1735312;81;21524;-56
2021/11/30 10:25:27;;;;;;;9.18;5.05;;;;;;;3.06;72.77;96775.06;1762312;79;21161;-56
2021/11/30 10:28:00;;;;;;;10.80;4.65;;;;;;;3.24;72.20;96780.48;1754363;79;21095;-56
2021/11/30 10:30:35;;;;;;;7.70;5.28;;;;;;;3.38;71.55;96767.41;1743714;80;21310;-56
2021/11/30 10:33:13;;;;;;;10.08;5.53;;;;;;;3.28;70.65;96758.82;1741172;79;21724;-56
2021/11/30 10:35:39;;;;;;;4.95;3.90;;;;;;;3.31;69.64;96754.27;1774924;79;21519;-56
2021/11/30 10:38:05;;;;;;;4.95;3.33;;;;;;;3.35;68.88;96753.22;1752901;79;21982;-57
2021/11/30 10:40:34;;;;;;;8.23;4.35;;;;;;;3.23;69.31;96745.41;1750554;79;21603;-56
2021/11/30 10:43:04;;;;;;;12.33;6.42;;;;;;;3.23;69.24;96738.71;1762830;79;21289;-56
2021/11/30 10:45:35;;;;;;;11.93;7.00;;;;;;;3.25;69.36;96730.45;1780845;79;21113;-56
2021/11/30 10:48:14;;;;;;;6.47;4.20;;;;;;;3.24;68.27;96719.44;1749363;79;21039;-56
2021/11/30 10:50:52;;;;;;;6.97;3.62;;;;;;;3.27;68.02;96713.04;1759731;79;21091;-56
2021/11/30 10:53:32;;;;;;;14.60;7.08;;;;;;;3.18;68.56;96702.58;1757591;79;21072;-57
2021/11/30 10:56:01;;;;;;;10.93;5.40;;;;;;;3.23;68.62;96697.22;1790326;79;21255;-56
2021/11/30 10:58:31;;;;;;;6.65;3.67;;;;;;;3.23;68.42;96689.72;1773942;79;21131;-56
2021/11/30 11:00:58;;;;;;;8.08;4.42;;;;;;;3.22;67.77;96681.42;1757422;79;21084;-56
2021/11/30 11:03:25;;;;;;;5.62;3.40;;;;;;;3.21;68.33;96674.47;1764698;79;21013;-56
2021/11/30 11:08:55;;;;;;;12.58;6.72;;;;;;;3.29;67.98;96667.25;1748543;79;21832;-56
2021/11/30 11:11:25;;;;;;;7.03;4.42;;;;;;;3.29;66.76;96661.90;1750026;79;21572;-56
2021/11/30 11:13:51;;;;;;;6.42;4.22;;;;;;;3.27;67.03;96659.49;1743311;79;22143;-57
2021/11/30 11:16:27;;;;;;;11.48;5.30;;;;;;;3.33;66.87;96653.59;1757093;79;22061;-57
2021/11/30 11:18:58;;;;;;;5.53;4.35;;;;;;;3.35;66.12;96646.12;1773794;79;21704;-57
2021/11/30 11:21:38;;;;;;;5.53;3.60;;;;;;;3.32;64.90;96637.26;1754264;79;21315;-56
2021/11/30 11:24:21;;;;;;;4.97;3.80;;;;;;;3.25;65.02;96637.55;1756050;79;21057;-56
2021/11/30 11:26:50;;;;;;;5.37;3.58;;;;;;;3.33;63.65;96630.83;1755252;79;21025;-56
2021/11/30 11:29:20;;;;;;;5.37;3.98;;;;;;;3.20;64.00;96612.62;1760764;81;21683;-56
2021/11/30 11:31:58;;;;;;;6.35;3.98;;;;;;;3.22;63.94;96622.53;1777419;79;21546;-56
2021/11/30 11:34:27;;;;;;;6.03;3.85;;;;;;;3.18;63.36;96630.84;1760459;81;21164;-57
2021/11/30 11:36:54;;;;;;;6.83;3.80;;;;;;;3.22;64.05;96621.19;1751292;79;21035;-56
2021/11/30 11:39:21;;;;;;;7.03;4.25;;;;;;;3.22;63.67;96612.62;1745717;79;21039;-56
2021/11/30 11:42:07;;;;;;;8.28;4.28;;;;;;;3.15;63.98;96604.05;1751976;79;21010;-56
2021/11/30 11:44:34;;;;;;;7.90;4.87;;;;;;;3.18;64.86;96604.88;1766735;79;21471;-56
2021/11/30 11:47:03;;;;;;;7.10;4.08;;;;;;;3.14;65.12;96615.02;1756495;79;21102;-56
2021/11/30 11:49:40;;;;;;;6.47;4.70;;;;;;;2.97;65.73;96608.58;1750987;79;21557;-56
2021/11/30 11:52:06;;;;;;;7.55;4.87;;;;;;;2.82;66.40;96606.69;1740609;81;21012;-55
2021/11/30 11:54:34;;;;;;;7.92;4.90;;;;;;;2.66;66.93;96604.51;1727998;80;21098;-57
2021/11/30 11:57:09;;;;;;;9.88;5.22;;;;;;;2.49;67.47;96590.55;1743969;81;21050;-57
2021/11/30 11:59:39;;;;;;;8.33;5.60;;;;;;;2.44;68.13;96589.18;1744575;81;21179;-56
2021/11/30 12:02:25;;;;;;;7.85;7.05;;;;;;;2.37;68.67;96576.58;1742466;80;21101;-56
2021/11/30 12:04:55;;;;;;;7.28;4.33;;;;;;;2.35;69.06;96564.83;1739010;81;21173;-55